Elizabethtown, Illinois
Current Conditions -  °F | °C
As of 6:35 PM on Wednesday 22 Oct 2014 (Local Time) from K5M9 Reporting Station
Clear Clear  
Wind Chill: 53°   Ceiling: Unl
Heat Index: 53°   Visibility: 10mi
Dew Point: 40°   Wind: 5mph
Humidity: 63%   Direction: 30°NNE
Pressure: 30.22"   Gusts: NA
Location:  37.45°N, 88.31°W
Report Text: K5M9 222335Z AUTO 03004KT 10SM CLR 12/05 A3022 RMK AO2 T01150046
Loading
Personal Weather Stations






























Interactive Weather Map
Tropical Storm Tracking
New forecast layout! Learn more

10-Day Weather Forecast

Advertisements
Track Severe Weather on mobile